This is the latest recevied weather packets stored in our database for station/object KN6KDD. If no packets are shown the sender has not sent any weather packets the latest 10 day(s).
| Time | Temp. | Humidity | Pressure | Rain* | Wind** | Luminosity | Snow |
|---|---|---|---|---|---|---|---|
| 1777474975 | 12.22° C | 82% | 1358.7 hPa | 0 mm | - | 170 W/m² | - |
| 1777474671 | 12.22° C | 83% | 1358.8 hPa | 0 mm | - | 124 W/m² | - |
| 1777474368 | 11.67° C | 83% | 1358.8 hPa | 0 mm | - | 113 W/m² | - |
| 1777474064 | 11.67° C | 83% | 1358.8 hPa | 0 mm | - | 91 W/m² | - |
| 1777473762 | 12.22° C | 84% | 1358.6 hPa | 0 mm | - | 87 W/m² | - |
| 1777473458 | 10.56° C | 90% | 1358.4 hPa | 0 mm | - | 117 W/m² | - |
| 1777473154 | 10.56° C | 89% | 1358.4 hPa | 0 mm | - | 64 W/m² | - |
| 1777472852 | 10.56° C | 89% | 1358.4 hPa | 0 mm | - | 47 W/m² | - |
| 1777472547 | 10° C | 89% | 1358.7 hPa | 0 mm | - | 41 W/m² | - |
| 1777472244 | 10.56° C | 88% | 1358.6 hPa | 0 mm | - | 43 W/m² | - |
| 1777471940 | 10.56° C | 86% | 1358.6 hPa | 0 mm | - | 36 W/m² | - |
| 1777471637 | 10.56° C | 86% | 1358.6 hPa | 0 mm | - | 34 W/m² | - |
| 1777471334 | 10° C | 88% | 1358.4 hPa | 0 mm | - | 32 W/m² | - |
| 1777471030 | 9.44° C | 91% | 1358.4 hPa | 0 mm | - | 29 W/m² | - |
| 1777470727 | 8.89° C | 93% | 1358.4 hPa | 0 mm | - | 27 W/m² | - |
| 1777470423 | 8.89° C | 93% | 1358.3 hPa | 0 mm | - | 23 W/m² | - |
| 1777470120 | 8.89° C | 92% | 1358.3 hPa | 0 mm | - | 20 W/m² | - |
| 1777469816 | 8.89° C | 92% | 1358.2 hPa | 0 mm | - | 17 W/m² | - |
| 1777469512 | 8.89° C | 91% | 1358 hPa | 0 mm | - | 13 W/m² | - |
| 1777469207 | 8.89° C | 89% | 1358.2 hPa | 0 mm | - | 9 W/m² | - |
| 1777468907 | 8.89° C | 90% | 1358 hPa | 0 mm | - | 6 W/m² | - |
| 1777468604 | 8.89° C | 92% | 1358.2 hPa | 0 mm | - | 4 W/m² | - |
| 1777468301 | 8.89° C | 92% | 1358.3 hPa | 0 mm | - | 2 W/m² | - |
| 1777467996 | 8.33° C | 93% | 1358 hPa | 0 mm | - | 1 W/m² | - |
| 1777467693 | 8.33° C | 92% | 1357.8 hPa | 0 mm | - | 0 W/m² | - |
* Rain latest hour (hover to see other rain measurements)
** Current wind speed in m/s (hover to see current wind gust speed)